createdAt,value
2023-06-04T00:01:28.533Z,91.47
2023-06-04T00:03:58.831Z,91.65
2023-06-04T00:06:28.972Z,91.47
2023-06-04T00:08:59.121Z,91.44
2023-06-04T00:11:29.346Z,92.04
2023-06-04T00:13:59.121Z,92.27
2023-06-04T00:16:29.204Z,92.60
2023-06-04T00:18:59.338Z,92.68
2023-06-04T00:21:29.425Z,92.48
2023-06-04T00:24:00.661Z,92.45
2023-06-04T00:26:31.124Z,92.40
2023-06-04T00:29:02.406Z,92.65
2023-06-04T00:31:32.791Z,92.78
2023-06-04T00:34:03.101Z,92.80
2023-06-04T00:36:34.323Z,92.96
2023-06-04T00:39:04.584Z,92.74
2023-06-04T00:41:34.783Z,93.04
2023-06-04T00:44:08.642Z,93.45
2023-06-04T00:46:38.880Z,93.99
2023-06-04T00:49:08.927Z,94.02
2023-06-04T00:51:38.813Z,93.99
2023-06-04T00:54:11.297Z,94.07
2023-06-04T00:56:42.137Z,94.44
2023-06-04T00:59:12.734Z,94.86
2023-06-04T01:01:59.362Z,94.91
2023-06-04T01:04:55.013Z,95.04
2023-06-04T01:07:28.123Z,95.28
2023-06-04T01:09:58.690Z,95.13
2023-06-04T01:12:32.081Z,95.32
2023-06-04T01:15:02.296Z,95.37
2023-06-04T01:17:39.543Z,95.71
2023-06-04T01:20:23.114Z,95.80
2023-06-04T01:23:22.277Z,96.15
2023-06-04T01:25:54.131Z,95.95
2023-06-04T01:28:24.300Z,95.73
2023-06-04T01:30:55.880Z,95.69
2023-06-04T01:33:26.344Z,95.88
2023-06-04T01:35:57.006Z,96.17
2023-06-04T01:38:27.098Z,95.92
2023-06-04T01:40:58.627Z,96.03
2023-06-04T01:43:28.654Z,96.21
2023-06-04T01:45:59.005Z,96.44
2023-06-04T01:48:29.221Z,96.29
2023-06-04T01:50:59.496Z,96.27
2023-06-04T01:53:30.447Z,96.38
2023-06-04T01:56:00.903Z,96.82
2023-06-04T01:58:31.328Z,96.41
2023-06-04T02:01:02.445Z,96.50
2023-06-04T02:03:38.936Z,95.97
2023-06-04T02:06:10.056Z,96.10
2023-06-04T02:08:40.814Z,95.99
2023-06-04T02:11:11.149Z,96.02
2023-06-04T02:13:41.327Z,96.13
2023-06-04T02:16:11.791Z,96.27
2023-06-04T02:18:41.990Z,96.21
2023-06-04T02:21:12.148Z,96.14
2023-06-04T02:23:43.557Z,96.36
2023-06-04T02:26:13.757Z,96.31
2023-06-04T02:28:43.716Z,96.25
2023-06-04T02:31:14.184Z,96.49
2023-06-04T02:33:43.896Z,96.98
2023-06-04T02:36:13.953Z,96.76
2023-06-04T02:38:44.037Z,96.58
2023-06-04T02:41:14.191Z,96.78
2023-06-04T02:43:44.297Z,96.81
2023-06-04T02:46:14.734Z,96.94
2023-06-04T02:48:44.626Z,96.77
2023-06-04T02:51:14.560Z,96.93
2023-06-04T02:53:44.498Z,96.85
2023-06-04T02:56:14.548Z,96.76
2023-06-04T02:58:55.705Z,97.13
2023-06-04T03:01:28.372Z,97.04
2023-06-04T03:04:01.640Z,96.88
2023-06-04T03:06:34.753Z,97.04
2023-06-04T03:09:04.784Z,97.15
2023-06-04T03:11:34.722Z,97.31
2023-06-04T03:14:04.852Z,97.05
2023-06-04T03:16:35.368Z,97.00
2023-06-04T03:19:05.431Z,97.21
2023-06-04T03:21:35.601Z,97.05
2023-06-04T03:24:05.822Z,97.01
2023-06-04T03:26:36.209Z,96.90
2023-06-04T03:29:06.341Z,97.01
2023-06-04T03:31:37.008Z,97.06
2023-06-04T03:34:07.797Z,97.03
2023-06-04T03:36:40.352Z,97.08
2023-06-04T03:39:10.695Z,96.99
2023-06-04T03:41:41.178Z,97.01
2023-06-04T03:44:11.272Z,97.19
2023-06-04T03:46:41.526Z,97.17
2023-06-04T03:49:12.474Z,96.95
2023-06-04T03:51:44.273Z,97.10
2023-06-04T03:54:14.769Z,97.19
2023-06-04T03:56:46.124Z,97.10
2023-06-04T03:59:16.676Z,97.05
2023-06-04T04:01:47.328Z,97.27
2023-06-04T04:04:18.689Z,97.13
2023-06-04T04:06:48.549Z,97.04
2023-06-04T04:09:18.414Z,97.15
2023-06-04T04:11:48.602Z,97.53
2023-06-04T04:14:18.750Z,97.64
2023-06-04T04:16:49.344Z,97.42
2023-06-04T04:19:19.930Z,97.87
2023-06-04T04:21:50.625Z,97.74
2023-06-04T04:24:30.860Z,97.90
2023-06-04T04:27:06.698Z,98.01
2023-06-04T04:29:37.279Z,97.85
2023-06-04T04:32:12.932Z,97.94
2023-06-04T04:34:57.105Z,97.80
2023-06-04T04:37:33.111Z,98.08
2023-06-04T04:40:03.889Z,98.12
2023-06-04T04:42:36.369Z,98.29
2023-06-04T04:45:08.879Z,98.30
2023-06-04T04:47:40.773Z,98.74
2023-06-04T04:50:11.208Z,98.64
2023-06-04T04:52:41.761Z,98.48
2023-06-04T04:55:14.119Z,98.53
2023-06-04T04:57:47.545Z,98.30
2023-06-04T05:00:19.529Z,98.39
2023-06-04T05:02:52.822Z,98.70
2023-06-04T05:05:23.839Z,98.97
2023-06-04T05:07:55.252Z,98.85
2023-06-04T05:10:32.114Z,99.10
2023-06-04T05:13:03.843Z,98.86
2023-06-04T05:15:42.196Z,98.68
2023-06-04T05:18:14.001Z,98.53
2023-06-04T05:20:45.204Z,98.71
2023-06-04T05:23:16.339Z,98.61
2023-06-04T05:25:52.971Z,98.47
2023-06-04T05:28:26.973Z,98.75
2023-06-04T05:31:01.880Z,98.73
2023-06-04T05:33:36.338Z,98.62
2023-06-04T05:36:11.110Z,98.95
2023-06-04T05:38:47.244Z,99.20
2023-06-04T05:41:19.875Z,99.99
2023-06-04T05:43:50.105Z,99.82
2023-06-04T05:46:21.004Z,99.10
2023-06-04T05:48:51.549Z,98.91
2023-06-04T05:51:22.850Z,98.83
2023-06-04T05:53:53.506Z,98.77
2023-06-04T05:56:23.894Z,98.67
2023-06-04T05:58:55.182Z,98.74
2023-06-04T06:01:27.811Z,98.71
2023-06-04T06:03:58.555Z,98.55
2023-06-04T06:06:30.786Z,98.63
2023-06-04T06:09:01.251Z,98.51
2023-06-04T06:11:31.809Z,98.54
2023-06-04T06:14:02.088Z,98.46
2023-06-04T06:16:32.323Z,98.73
2023-06-04T06:19:03.636Z,99.00
2023-06-04T06:21:33.767Z,99.20
2023-06-04T06:24:04.139Z,99.10
2023-06-04T06:26:35.084Z,98.83
2023-06-04T06:29:06.470Z,98.50
2023-06-04T06:31:37.096Z,98.39
2023-06-04T06:34:07.911Z,98.29
2023-06-04T06:36:37.981Z,98.36
2023-06-04T06:39:08.417Z,98.37
2023-06-04T06:41:40.607Z,99.13
2023-06-04T06:44:30.103Z,99.13
2023-06-04T06:47:00.243Z,99.21
2023-06-04T06:49:30.358Z,99.15
2023-06-04T06:52:00.430Z,99.64
2023-06-04T06:54:30.627Z,99.48
2023-06-04T06:57:00.722Z,99.65
2023-06-04T06:59:30.610Z,99.29
2023-06-04T07:02:00.757Z,99.77
2023-06-04T07:04:30.660Z,99.59
2023-06-04T07:07:00.815Z,99.90
2023-06-04T07:09:30.787Z,99.99
2023-06-04T07:12:00.863Z,99.99
2023-06-04T07:14:31.008Z,99.99
2023-06-04T07:17:01.195Z,99.99
2023-06-04T07:19:31.436Z,99.99
2023-06-04T07:22:01.884Z,99.99
2023-06-04T07:24:32.239Z,99.99
2023-06-04T07:27:02.388Z,99.99
2023-06-04T07:29:32.626Z,99.99
2023-06-04T07:32:02.715Z,99.99
2023-06-04T07:34:32.938Z,99.88
2023-06-04T07:37:03.237Z,99.99
2023-06-04T07:39:33.434Z,99.99
2023-06-04T07:42:03.560Z,99.99
2023-06-04T07:44:33.747Z,99.99
2023-06-04T07:47:04.101Z,99.99
2023-06-04T07:49:34.344Z,99.99
2023-06-04T07:52:04.426Z,99.99
2023-06-04T07:54:35.594Z,99.99
2023-06-04T07:57:05.850Z,99.99
2023-06-04T07:59:36.086Z,99.99
2023-06-04T08:02:06.436Z,99.99
2023-06-04T08:04:37.003Z,99.99
2023-06-04T08:07:07.396Z,99.99
2023-06-04T08:09:37.276Z,99.93
2023-06-04T08:12:09.866Z,99.99
2023-06-04T08:14:42.144Z,99.99
2023-06-04T08:17:12.330Z,99.99
2023-06-04T08:19:42.506Z,99.99
2023-06-04T08:22:13.752Z,99.99
2023-06-04T08:24:44.677Z,99.99
2023-06-04T08:27:14.761Z,99.99
2023-06-04T08:29:44.682Z,99.99
2023-06-04T08:32:14.540Z,99.99
2023-06-04T08:34:44.764Z,99.99
2023-06-04T08:37:14.873Z,99.99
2023-06-04T08:39:45.050Z,99.99
2023-06-04T08:42:23.512Z,99.99
2023-06-04T08:44:55.035Z,99.99
2023-06-04T08:47:30.731Z,99.99
2023-06-04T08:50:03.017Z,99.99
2023-06-04T08:52:33.522Z,99.99
2023-06-04T08:55:04.952Z,99.99
2023-06-04T08:57:35.141Z,99.99
2023-06-04T09:00:07.512Z,99.99
2023-06-04T09:02:40.437Z,99.99
2023-06-04T09:05:14.705Z,99.99
2023-06-04T09:07:45.211Z,99.99
2023-06-04T09:10:20.560Z,99.99
2023-06-04T09:12:51.996Z,99.99
2023-06-04T09:15:22.185Z,99.99
2023-06-04T09:17:52.310Z,99.99
2023-06-04T09:20:26.894Z,99.99
2023-06-04T09:22:57.563Z,99.99
2023-06-04T09:25:29.639Z,99.99
2023-06-04T09:28:09.205Z,99.99
2023-06-04T09:30:39.414Z,99.99
2023-06-04T09:33:14.437Z,99.99
2023-06-04T09:35:55.595Z,99.99
2023-06-04T09:38:26.298Z,99.99
2023-06-04T09:40:56.529Z,99.99
2023-06-04T09:43:26.886Z,99.99
2023-06-04T09:45:57.099Z,99.99
2023-06-04T09:48:28.049Z,99.99
2023-06-04T09:51:08.844Z,99.99
2023-06-04T09:53:39.724Z,99.99
2023-06-04T09:56:13.370Z,99.99
2023-06-04T09:58:46.964Z,99.99
2023-06-04T10:01:17.544Z,99.99
2023-06-04T10:03:50.866Z,99.99
2023-06-04T10:06:25.814Z,99.99
2023-06-04T10:08:58.265Z,99.99
2023-06-04T10:11:40.237Z,99.99
2023-06-04T10:14:23.518Z,99.99
2023-06-04T10:16:55.107Z,99.99
2023-06-04T10:19:26.175Z,99.99
2023-06-04T10:21:56.595Z,99.99
2023-06-04T10:24:28.942Z,99.99
2023-06-04T10:27:01.706Z,99.99
2023-06-04T10:29:33.113Z,99.99
2023-06-04T10:32:03.528Z,99.99
2023-06-04T10:34:34.588Z,99.99
2023-06-04T10:37:05.891Z,99.99
2023-06-04T10:39:36.087Z,99.99
2023-06-04T10:42:07.975Z,99.99
2023-06-04T10:44:49.238Z,99.99
2023-06-04T10:47:24.333Z,99.99
2023-06-04T10:49:55.745Z,99.99
2023-06-04T10:52:26.054Z,99.99
2023-06-04T10:55:07.069Z,99.99
2023-06-04T10:57:38.867Z,99.99
2023-06-04T11:00:12.361Z,99.99
2023-06-04T11:02:58.133Z,99.99
2023-06-04T11:05:39.162Z,99.99
2023-06-04T11:08:10.598Z,99.99
2023-06-04T11:10:42.922Z,99.99
2023-06-04T11:13:13.489Z,99.99
2023-06-04T11:15:47.229Z,99.99
2023-06-04T11:18:26.238Z,99.99
2023-06-04T11:21:04.104Z,99.76
2023-06-04T11:23:36.290Z,99.94
2023-06-04T11:26:06.774Z,99.53
2023-06-04T11:28:37.269Z,99.70
2023-06-04T11:31:10.771Z,99.49
2023-06-04T11:33:47.742Z,99.74
2023-06-04T11:36:28.247Z,99.61
2023-06-04T11:39:04.536Z,99.38
2023-06-04T11:41:35.971Z,99.51
2023-06-04T11:44:10.949Z,99.49
2023-06-04T11:46:47.574Z,99.54
2023-06-04T11:49:21.844Z,99.36
2023-06-04T11:51:53.757Z,98.96
2023-06-04T11:54:24.987Z,98.93
2023-06-04T11:56:55.697Z,98.88
2023-06-04T11:59:26.810Z,98.51
2023-06-04T12:01:57.093Z,98.77
2023-06-04T12:04:32.397Z,98.44
2023-06-04T12:07:04.604Z,98.33
2023-06-04T12:09:40.545Z,97.78
2023-06-04T12:12:11.314Z,97.66
2023-06-04T12:14:41.764Z,97.42
2023-06-04T12:17:12.445Z,97.42
2023-06-04T12:19:53.576Z,97.13
2023-06-04T12:22:23.663Z,96.93
2023-06-04T12:25:02.935Z,96.77
2023-06-04T12:27:33.838Z,96.38
2023-06-04T12:30:07.464Z,96.35
2023-06-04T12:32:41.170Z,96.10
2023-06-04T12:35:11.507Z,96.00
2023-06-04T12:37:42.087Z,95.75
2023-06-04T12:40:12.467Z,95.48
2023-06-04T12:42:42.839Z,95.15
2023-06-04T12:45:15.500Z,95.35
2023-06-04T12:47:45.991Z,95.06
2023-06-04T12:50:16.107Z,94.75
2023-06-04T12:52:46.202Z,94.61
2023-06-04T12:55:16.484Z,94.37
2023-06-04T12:57:48.341Z,93.57
2023-06-04T13:00:18.942Z,93.39
2023-06-04T13:02:49.108Z,93.30
2023-06-04T13:05:19.315Z,93.64
2023-06-04T13:07:49.491Z,93.85
2023-06-04T13:10:19.678Z,93.68
2023-06-04T13:12:49.846Z,93.49
2023-06-04T13:15:19.729Z,93.27
2023-06-04T13:17:49.599Z,92.83
2023-06-04T13:20:19.541Z,92.97
2023-06-04T13:22:49.565Z,93.05
2023-06-04T13:25:19.950Z,92.54
2023-06-04T13:27:51.467Z,92.28
2023-06-04T13:30:21.596Z,92.31
2023-06-04T13:32:51.853Z,91.92
2023-06-04T13:35:22.350Z,92.17
2023-06-04T13:37:51.951Z,92.27
2023-06-04T13:40:22.140Z,90.87
2023-06-04T13:42:52.632Z,91.01
2023-06-04T13:45:25.078Z,90.38
2023-06-04T13:47:56.595Z,89.47
2023-06-04T13:50:26.239Z,89.55
2023-06-04T13:52:56.054Z,90.38
2023-06-04T13:55:26.374Z,90.35
2023-06-04T13:57:56.490Z,90.16
2023-06-04T14:00:26.821Z,90.25
2023-06-04T14:02:57.317Z,89.81
2023-06-04T14:05:30.189Z,88.73
2023-06-04T14:08:00.380Z,87.54
2023-06-04T14:10:30.478Z,88.37
2023-06-04T14:13:00.573Z,87.77
2023-06-04T14:15:30.585Z,88.12
2023-06-04T14:18:00.698Z,87.35
2023-06-04T14:20:30.615Z,87.39
2023-06-04T14:23:00.596Z,87.49
2023-06-04T14:25:30.492Z,87.01
2023-06-04T14:28:00.378Z,85.97
2023-06-04T14:30:30.272Z,86.20
2023-06-04T14:33:00.398Z,85.89
2023-06-04T14:35:30.632Z,85.81
2023-06-04T14:38:00.758Z,84.32
2023-06-04T14:40:30.596Z,84.87
2023-06-04T14:43:00.795Z,83.29
2023-06-04T14:45:31.326Z,83.48
2023-06-04T14:48:13.909Z,84.27
2023-06-04T14:50:45.934Z,83.02
2023-06-04T14:53:16.194Z,83.29
2023-06-04T14:55:46.284Z,82.66
2023-06-04T14:58:17.263Z,82.67
2023-06-04T15:00:48.046Z,81.85
2023-06-04T15:03:18.286Z,81.92
2023-06-04T15:05:48.530Z,82.04
2023-06-04T15:08:18.622Z,81.55
2023-06-04T15:10:49.359Z,81.81
2023-06-04T15:13:19.794Z,82.93
2023-06-04T15:15:50.110Z,82.34
2023-06-04T15:18:20.328Z,81.70
2023-06-04T15:20:50.975Z,82.04
2023-06-04T15:23:40.975Z,81.68
2023-06-04T15:26:11.257Z,80.16
2023-06-04T15:28:40.836Z,81.55
2023-06-04T15:31:10.601Z,81.75
2023-06-04T15:33:40.640Z,81.61
2023-06-04T15:36:10.510Z,81.09
2023-06-04T15:38:40.406Z,80.14
2023-06-04T15:41:10.123Z,81.43
2023-06-04T15:43:40.219Z,81.50
2023-06-04T15:46:10.345Z,80.29
2023-06-04T15:48:40.917Z,79.61
2023-06-04T15:51:11.065Z,80.50
2023-06-04T15:53:40.749Z,79.70
2023-06-04T15:56:10.869Z,79.70
2023-06-04T15:58:41.031Z,79.66
2023-06-04T16:01:11.418Z,80.07
2023-06-04T16:03:42.124Z,79.94
2023-06-04T16:06:13.349Z,80.04
2023-06-04T16:08:43.564Z,80.11
2023-06-04T16:11:13.181Z,78.21
2023-06-04T16:13:43.570Z,78.49
2023-06-04T16:16:13.760Z,78.64
2023-06-04T16:18:44.073Z,78.03
2023-06-04T16:21:13.721Z,76.71
2023-06-04T16:23:43.604Z,77.87
2023-06-04T16:26:13.759Z,79.25
2023-06-04T16:28:43.750Z,79.31
2023-06-04T16:31:13.393Z,77.91
2023-06-04T16:33:43.970Z,78.37
2023-06-04T16:36:13.999Z,79.51
2023-06-04T16:38:44.061Z,76.68
2023-06-04T16:41:13.694Z,77.92
2023-06-04T16:43:43.477Z,77.85
2023-06-04T16:46:17.940Z,78.68
2023-06-04T16:48:48.498Z,78.10
2023-06-04T16:51:18.663Z,77.65
2023-06-04T16:53:48.352Z,76.77
2023-06-04T16:56:18.135Z,73.39
2023-06-04T16:58:48.276Z,69.59
2023-06-04T17:01:18.645Z,70.30
2023-06-04T17:03:49.907Z,69.39
2023-06-04T17:06:22.354Z,68.62
2023-06-04T17:08:52.552Z,67.81
2023-06-04T17:11:22.686Z,65.77
2023-06-04T17:13:54.834Z,64.67
2023-06-04T17:16:27.609Z,62.16
2023-06-04T17:18:57.994Z,63.14
2023-06-04T17:21:29.428Z,63.16
2023-06-04T17:24:01.520Z,62.06
2023-06-04T17:26:32.957Z,62.37
2023-06-04T17:29:03.357Z,62.39
2023-06-04T17:31:34.150Z,63.97
2023-06-04T17:34:05.293Z,63.25
2023-06-04T17:36:37.409Z,61.92
2023-06-04T17:39:08.086Z,60.88
2023-06-04T17:41:38.251Z,63.34
2023-06-04T17:44:08.498Z,68.83
2023-06-04T17:46:39.156Z,68.81
2023-06-04T17:49:12.464Z,70.41
2023-06-04T17:51:42.598Z,66.48
2023-06-04T17:54:13.987Z,68.57
2023-06-04T17:56:44.196Z,72.33
2023-06-04T17:59:14.441Z,74.13
2023-06-04T18:01:44.619Z,73.03
2023-06-04T18:04:15.158Z,71.11
2023-06-04T18:06:45.404Z,70.59
2023-06-04T18:09:15.641Z,72.23
2023-06-04T18:11:45.981Z,74.50
2023-06-04T18:14:16.426Z,74.14
2023-06-04T18:16:46.638Z,75.31
2023-06-04T18:19:22.037Z,74.77
2023-06-04T18:21:53.714Z,75.26
2023-06-04T18:24:24.163Z,75.57
2023-06-04T18:26:54.395Z,73.33
2023-06-04T18:29:24.594Z,73.43
2023-06-04T18:31:54.802Z,75.96
2023-06-04T18:34:25.124Z,75.43
2023-06-04T18:36:55.379Z,77.13
2023-06-04T18:39:29.099Z,77.44
2023-06-04T18:41:59.242Z,76.96
2023-06-04T18:44:29.581Z,78.35
2023-06-04T18:47:00.677Z,79.11
2023-06-04T18:49:51.125Z,78.26
2023-06-04T18:52:21.970Z,78.60
2023-06-04T18:54:52.155Z,79.15
2023-06-04T18:57:23.044Z,79.98
2023-06-04T18:59:53.220Z,79.73
2023-06-04T19:02:22.871Z,79.08
2023-06-04T19:04:53.111Z,79.52
2023-06-04T19:07:23.566Z,79.87
2023-06-04T19:09:53.691Z,79.90
2023-06-04T19:12:23.804Z,79.11
2023-06-04T19:14:53.923Z,79.10
2023-06-04T19:17:24.715Z,80.02
2023-06-04T19:19:55.216Z,80.65
2023-06-04T19:22:25.660Z,81.29
2023-06-04T19:24:55.870Z,81.27
2023-06-04T19:27:25.618Z,81.17
2023-06-04T19:29:56.711Z,81.75
2023-06-04T19:32:30.043Z,80.97
2023-06-04T19:35:00.143Z,80.34
2023-06-04T19:37:31.565Z,79.54
2023-06-04T19:40:04.003Z,79.99
2023-06-04T19:42:34.317Z,80.48
2023-06-04T19:45:04.671Z,81.12
2023-06-04T19:47:34.829Z,82.09
2023-06-04T19:50:24.369Z,82.53
2023-06-04T19:52:54.453Z,83.05
2023-06-04T19:55:25.413Z,83.30
2023-06-04T19:57:57.720Z,83.66
2023-06-04T20:00:27.916Z,83.51
2023-06-04T20:02:57.739Z,83.80
2023-06-04T20:05:27.990Z,83.97
2023-06-04T20:07:58.208Z,84.09
2023-06-04T20:10:28.654Z,84.23
2023-06-04T20:12:58.673Z,84.41
2023-06-04T20:15:28.697Z,84.63
2023-06-04T20:18:18.604Z,84.95
2023-06-04T20:20:54.015Z,85.18
2023-06-04T20:23:24.191Z,85.32
2023-06-04T20:25:53.950Z,85.45
2023-06-04T20:28:23.954Z,85.65
2023-06-04T20:30:54.165Z,85.87
2023-06-04T20:33:23.826Z,86.07
2023-06-04T20:35:53.592Z,86.16
2023-06-04T20:38:23.461Z,86.25
2023-06-04T20:40:53.486Z,86.38
2023-06-04T20:43:23.091Z,86.65
2023-06-04T20:45:54.604Z,86.92
2023-06-04T20:48:24.691Z,87.21
2023-06-04T20:50:55.008Z,87.31
2023-06-04T20:53:25.448Z,87.83
2023-06-04T20:55:55.315Z,87.96
2023-06-04T20:58:25.474Z,88.06
2023-06-04T21:00:55.691Z,88.21
2023-06-04T21:03:27.334Z,88.20
2023-06-04T21:05:57.870Z,88.61
2023-06-04T21:08:28.129Z,88.76
2023-06-04T21:10:58.856Z,89.16
2023-06-04T21:13:29.587Z,89.39
2023-06-04T21:16:00.378Z,90.14
2023-06-04T21:18:30.532Z,91.44
2023-06-04T21:21:00.765Z,91.66
2023-06-04T21:23:30.701Z,91.27
2023-06-04T21:26:02.074Z,91.28
2023-06-04T21:28:32.281Z,91.28
2023-06-04T21:31:02.819Z,91.42
2023-06-04T21:33:33.084Z,91.41
2023-06-04T21:36:22.528Z,91.18
2023-06-04T21:38:52.189Z,91.03
2023-06-04T21:41:22.769Z,90.91
2023-06-04T21:43:53.048Z,90.64
2023-06-04T21:46:23.938Z,90.50
2023-06-04T21:48:54.081Z,90.43
2023-06-04T21:51:24.582Z,90.44
2023-06-04T21:53:54.780Z,90.53
2023-06-04T21:56:24.706Z,90.72
2023-06-04T21:58:55.679Z,91.96
2023-06-04T22:01:26.508Z,91.97
2023-06-04T22:03:56.897Z,91.80
2023-06-04T22:06:27.241Z,91.97
2023-06-04T22:08:57.223Z,92.58
2023-06-04T22:11:27.580Z,92.57
2023-06-04T22:13:57.785Z,92.47
2023-06-04T22:16:29.023Z,92.37
2023-06-04T22:18:59.452Z,92.50
2023-06-04T22:21:30.035Z,92.72
2023-06-04T22:24:00.267Z,92.94
2023-06-04T22:29:06.989Z,93.29
2023-06-04T22:31:37.292Z,93.33
2023-06-04T22:34:07.275Z,93.56
2023-06-04T22:36:37.335Z,93.57
2023-06-04T22:39:07.757Z,93.51
2023-06-04T22:41:38.670Z,93.63
2023-06-04T22:44:08.682Z,93.64
2023-06-04T22:46:38.735Z,93.66
2023-06-04T22:49:09.614Z,93.78
2023-06-04T22:51:40.484Z,93.53
2023-06-04T22:54:10.587Z,93.48
2023-06-04T22:56:40.783Z,93.58
2023-06-04T22:59:10.749Z,93.64
2023-06-04T23:01:41.036Z,94.05
2023-06-04T23:04:10.996Z,94.85
2023-06-04T23:06:41.127Z,94.98
2023-06-04T23:09:14.678Z,95.32
2023-06-04T23:11:46.303Z,95.06
2023-06-04T23:14:16.728Z,95.01
2023-06-04T23:16:47.148Z,95.15
2023-06-04T23:19:17.399Z,95.08
2023-06-04T23:21:48.501Z,95.21
2023-06-04T23:24:37.554Z,95.15
2023-06-04T23:27:08.069Z,95.14
2023-06-04T23:29:38.252Z,95.14
2023-06-04T23:32:08.741Z,95.08
2023-06-04T23:34:38.988Z,95.04
2023-06-04T23:37:09.082Z,94.81
2023-06-04T23:39:39.184Z,94.48
2023-06-04T23:42:09.424Z,94.52
2023-06-04T23:44:39.576Z,94.62
2023-06-04T23:47:09.662Z,95.16
2023-06-04T23:49:39.611Z,95.92
2023-06-04T23:52:09.888Z,95.89
2023-06-04T23:54:40.317Z,95.93
2023-06-04T23:57:10.014Z,96.24
2023-06-04T23:59:40.091Z,96.08
